Time;durP1;ratioP1;P1;durP2;ratioP2;P2;SDS_P1;SDS_P2;PMS_P1;PMS_P2;Temp;Humidity;BMP_temperature;BMP_pressure;BME280_temperature;BME280_humidity;BME280_pressure;Samples;Min_cycle;Max_cycle;Signal;HPM_P1;HPM_P2
2022/01/25 00:09:49;;;;;;;48.85;26.02;;;;;;;1.46;85.62;101753.44;2025564;86;21055;-78
2022/01/25 00:29:09;;;;;;;40.05;21.20;;;;;;;1.39;85.68;101736.34;2032816;86;21594;-77
2022/01/25 00:32:09;;;;;;;45.78;22.60;;;;;;;1.42;85.80;101727.89;2034393;86;21035;-77
2022/01/25 00:35:10;;;;;;;39.58;21.37;;;;;;;1.45;85.81;101721.67;2034331;86;21069;-77
2022/01/25 00:38:12;;;;;;;41.15;21.52;;;;;;;1.46;85.90;101719.44;2011492;86;21065;-76
2022/01/25 00:41:15;;;;;;;42.33;22.77;;;;;;;1.49;85.94;101717.98;2036449;86;21006;-77
2022/01/25 00:44:16;;;;;;;45.20;24.70;;;;;;;1.50;85.96;101706.16;2032806;86;20998;-76
2022/01/25 00:47:20;;;;;;;50.58;26.33;;;;;;;1.50;85.97;101713.16;2033371;86;21034;-76
2022/01/25 00:50:23;;;;;;;51.70;23.93;;;;;;;1.52;86.04;101713.92;2031766;86;21189;-76
2022/01/25 00:56:51;;;;;;;41.77;22.50;;;;;;;1.44;86.04;101719.52;2036548;86;21118;-77
2022/01/25 00:59:52;;;;;;;45.25;23.22;;;;;;;1.39;86.14;101716.26;2036284;86;21082;-77
2022/01/25 01:02:55;;;;;;;43.60;22.25;;;;;;;1.37;86.22;101712.85;2035043;86;21010;-76
2022/01/25 01:05:56;;;;;;;46.35;21.95;;;;;;;1.39;86.26;101712.80;2031069;86;21401;-77
2022/01/25 01:08:57;;;;;;;38.85;22.17;;;;;;;1.39;86.32;101711.02;2034458;86;22609;-76
2022/01/25 01:12:08;;;;;;;42.53;21.25;;;;;;;1.44;86.42;101712.14;2036733;86;21592;-76
2022/01/25 01:15:17;;;;;;;40.40;22.15;;;;;;;1.46;86.51;101702.44;2028308;86;21744;-76
2022/01/25 01:38:15;;;;;;;39.45;20.57;;;;;;;1.50;86.49;101697.47;2035721;85;21071;-77
2022/01/25 01:44:10;;;;;;;44.05;23.77;;;;;;;1.48;86.72;101683.59;1995891;86;21012;-77
2022/01/25 01:47:20;;;;;;;41.63;22.27;;;;;;;1.48;86.73;101683.13;2032829;85;21117;-77
2022/01/25 01:50:27;;;;;;;41.60;24.05;;;;;;;1.50;86.69;101675.23;2027069;86;21075;-77
2022/01/25 01:53:19;;;;;;;42.70;22.02;;;;;;;1.52;86.72;101678.60;2026168;85;21083;-77
2022/01/25 01:56:20;;;;;;;51.05;23.15;;;;;;;1.57;86.73;101674.02;2031205;85;21038;-77
2022/01/25 01:59:22;;;;;;;43.08;22.70;;;;;;;1.59;86.69;101665.64;2032967;86;20998;-77
2022/01/25 02:02:23;;;;;;;50.90;22.58;;;;;;;1.60;86.61;101659.48;2034551;86;21000;-77
2022/01/25 02:05:24;;;;;;;40.78;21.37;;;;;;;1.59;86.63;101656.48;2029558;86;21003;-77
2022/01/25 02:08:26;;;;;;;37.73;20.40;;;;;;;1.56;86.68;101654.01;2033050;86;21623;-77
2022/01/25 02:11:29;;;;;;;33.28;18.57;;;;;;;1.53;86.70;101647.15;2024511;86;21116;-77
2022/01/25 02:14:33;;;;;;;34.63;19.32;;;;;;;1.51;86.72;101641.13;2029702;86;21067;-77
2022/01/25 02:24:17;;;;;;;29.95;17.27;;;;;;;1.46;87.00;101637.88;2029466;85;21117;-78
2022/01/25 02:27:19;;;;;;;29.77;17.27;;;;;;;1.46;87.12;101637.03;2034996;86;21070;-78
2022/01/25 02:30:20;;;;;;;32.33;18.07;;;;;;;1.48;87.18;101643.05;2034209;86;21054;-80
2022/01/25 02:33:22;;;;;;;35.63;19.87;;;;;;;1.49;87.25;101639.50;2034964;86;21526;-79
2022/01/25 02:36:27;;;;;;;34.85;18.87;;;;;;;1.47;87.24;101636.13;2002307;85;21078;-78
2022/01/25 02:39:30;;;;;;;31.40;18.35;;;;;;;1.48;87.23;101631.28;2032294;86;21087;-75
2022/01/25 02:42:31;;;;;;;31.73;18.70;;;;;;;1.52;87.27;101635.44;2030677;86;21611;-76
2022/01/25 02:45:35;;;;;;;34.85;18.70;;;;;;;1.52;87.30;101638.05;2033385;85;21090;-76
2022/01/25 02:49:02;;;;;;;34.33;18.82;;;;;;;1.49;87.30;101634.27;2037913;86;21089;-76
2022/01/25 02:52:05;;;;;;;28.87;17.30;;;;;;;1.48;87.33;101636.05;2032758;86;21080;-75
2022/01/25 02:55:07;;;;;;;33.28;17.50;;;;;;;1.48;87.40;101634.73;2009186;86;21039;-75
2022/01/25 02:58:09;;;;;;;32.67;17.82;;;;;;;1.50;87.41;101632.91;2035597;86;21059;-75
2022/01/25 03:01:11;;;;;;;31.57;17.87;;;;;;;1.52;87.43;101634.13;2029822;86;21054;-75
2022/01/25 03:04:20;;;;;;;28.05;16.57;;;;;;;1.56;87.49;101630.47;2034103;86;21059;-75
2022/01/25 03:07:21;;;;;;;31.25;17.50;;;;;;;1.57;87.44;101622.52;2034660;86;21071;-76
2022/01/25 03:10:22;;;;;;;28.60;15.83;;;;;;;1.61;87.50;101615.41;2033603;86;21074;-75
2022/01/25 03:13:31;;;;;;;33.15;17.45;;;;;;;1.63;87.43;101610.92;2027169;85;21066;-75
2022/01/25 03:16:37;;;;;;;30.52;16.57;;;;;;;1.67;87.41;101609.87;2020215;85;21123;-75
2022/01/25 03:22:56;;;;;;;38.33;19.92;;;;;;;1.69;87.20;101602.80;2019478;86;21114;-75
2022/01/25 03:25:48;;;;;;;39.27;19.92;;;;;;;1.61;87.00;101602.78;2021762;86;21080;-76
2022/01/25 03:28:55;;;;;;;28.40;16.90;;;;;;;1.56;87.10;101602.99;2015683;86;21091;-75
2022/01/25 03:31:56;;;;;;;31.68;18.23;;;;;;;1.61;87.26;101608.02;2004845;86;21570;-75
2022/01/25 03:34:59;;;;;;;27.45;16.10;;;;;;;1.59;87.20;101600.23;2015156;86;22285;-75
2022/01/25 03:38:03;;;;;;;25.27;16.10;;;;;;;1.64;87.30;101604.79;2025466;86;21034;-76
2022/01/25 03:41:12;;;;;;;28.35;15.72;;;;;;;1.63;87.21;101608.77;2013164;86;21074;-76
2022/01/25 03:44:16;;;;;;;31.68;17.27;;;;;;;1.67;87.34;101605.11;2018302;86;21071;-76
2022/01/25 03:47:20;;;;;;;33.67;18.40;;;;;;;1.70;87.29;101599.72;2022546;86;21538;-75
2022/01/25 03:50:20;;;;;;;31.12;18.15;;;;;;;1.74;87.35;101594.25;2004020;86;21012;-76
2022/01/25 03:53:21;;;;;;;30.05;16.85;;;;;;;1.78;87.37;101598.89;2021445;86;21020;-76
2022/01/25 03:56:24;;;;;;;29.92;17.27;;;;;;;1.82;87.29;101597.81;2020226;86;21045;-76
2022/01/25 03:59:25;;;;;;;27.10;16.20;;;;;;;1.73;87.17;101601.72;2018012;86;21019;-75
2022/01/25 04:02:32;;;;;;;29.15;15.60;;;;;;;1.70;87.22;101604.95;2018987;86;21066;-75
2022/01/25 04:05:50;;;;;;;28.17;15.23;;;;;;;1.69;87.33;101603.24;2018429;86;21550;-75
2022/01/25 04:08:40;;;;;;;28.12;16.15;;;;;;;1.66;87.34;101596.84;2017450;86;21038;-75
2022/01/25 04:11:41;;;;;;;30.05;16.23;;;;;;;1.65;87.40;101593.39;2019275;86;21510;-75
2022/01/25 04:14:42;;;;;;;31.42;15.85;;;;;;;1.66;87.50;101594.23;2040420;85;21034;-75
2022/01/25 04:17:49;;;;;;;28.30;15.78;;;;;;;1.67;87.55;101603.33;2048211;85;21066;-75
2022/01/25 04:21:05;;;;;;;27.67;16.32;;;;;;;1.69;87.55;101589.72;2049807;85;21090;-75
2022/01/25 04:27:25;;;;;;;31.77;17.80;;;;;;;1.76;87.68;101598.11;2051394;85;21078;-75
2022/01/25 04:30:29;;;;;;;32.08;18.12;;;;;;;1.76;87.67;101595.03;2030172;85;21043;-75
2022/01/25 04:33:40;;;;;;;31.00;16.48;;;;;;;1.81;87.74;101601.36;2046382;85;21042;-75
2022/01/25 04:49:51;;;;;;;31.70;18.52;;;;;;;2.02;87.58;101581.97;2047552;85;21114;-75
2022/01/25 04:52:59;;;;;;;30.52;17.92;;;;;;;2.05;87.51;101578.82;2027773;85;21127;-75
2022/01/25 04:56:07;;;;;;;29.65;17.37;;;;;;;2.09;87.38;101581.69;2050497;85;21138;-75
2022/01/25 04:59:22;;;;;;;32.67;18.52;;;;;;;2.09;87.49;101587.77;2052311;85;21034;-75
2022/01/25 05:02:19;;;;;;;36.28;19.70;;;;;;;2.03;87.23;101577.61;2050910;84;21054;-75
2022/01/25 05:05:34;;;;;;;28.23;16.45;;;;;;;1.98;87.20;101583.52;2046389;85;21043;-75
2022/01/25 05:08:38;;;;;;;36.90;18.95;;;;;;;1.94;87.21;101584.58;2051749;85;21581;-75
2022/01/25 05:11:43;;;;;;;28.55;16.20;;;;;;;1.84;87.19;101582.05;2051876;85;21073;-75
2022/01/25 05:24:24;;;;;;;29.00;16.17;;;;;;;1.76;87.59;101574.56;2031420;86;21084;-75
2022/01/25 05:27:31;;;;;;;29.60;15.78;;;;;;;1.76;87.66;101575.41;2029274;85;21066;-76
2022/01/25 05:30:32;;;;;;;29.18;15.50;;;;;;;1.77;87.62;101565.78;2027371;86;21079;-76
2022/01/25 05:33:34;;;;;;;32.95;18.55;;;;;;;1.74;87.60;101569.85;2028227;85;21145;-76
2022/01/25 05:36:38;;;;;;;28.60;17.00;;;;;;;1.72;87.61;101579.57;2030420;86;21108;-76
2022/01/25 05:39:40;;;;;;;30.75;17.12;;;;;;;1.72;87.70;101572.56;2035585;86;21076;-76
2022/01/25 05:48:57;;;;;;;28.02;15.53;;;;;;;1.71;87.68;101563.46;2034304;86;21037;-76
2022/01/25 05:51:59;;;;;;;24.92;14.43;;;;;;;1.72;87.73;101568.63;2031070;86;21041;-75
2022/01/25 05:55:01;;;;;;;21.68;12.65;;;;;;;1.72;87.72;101567.80;2031700;86;21094;-76
2022/01/25 05:58:03;;;;;;;24.40;14.05;;;;;;;1.74;87.78;101554.99;2007908;86;20994;-76
2022/01/25 06:01:04;;;;;;;26.85;14.20;;;;;;;1.75;87.80;101550.62;2028680;86;21061;-76
2022/01/25 06:04:07;;;;;;;20.40;11.48;;;;;;;1.73;87.81;101554.62;2032426;85;22170;-76
2022/01/25 06:07:10;;;;;;;22.45;12.20;;;;;;;1.75;87.84;101559.33;2028282;86;21632;-76
2022/01/25 06:10:11;;;;;;;21.30;12.53;;;;;;;1.76;87.85;101553.16;2030897;86;21034;-75
2022/01/25 06:13:12;;;;;;;25.05;14.85;;;;;;;1.79;87.94;101543.84;2030899;86;21073;-75
2022/01/25 06:16:14;;;;;;;25.72;16.45;;;;;;;1.79;87.89;101537.30;2014809;86;21024;-75
2022/01/25 06:19:15;;;;;;;26.75;16.02;;;;;;;1.78;87.94;101538.23;2004979;86;21087;-76
2022/01/25 06:22:17;;;;;;;24.95;15.63;;;;;;;1.75;87.95;101540.16;2015506;86;21487;-76
2022/01/25 06:25:18;;;;;;;22.27;12.95;;;;;;;1.74;87.96;101543.69;2016089;86;21036;-76
2022/01/25 06:28:20;;;;;;;19.92;12.07;;;;;;;1.74;88.02;101541.91;2014957;86;21016;-76
2022/01/25 06:31:22;;;;;;;22.45;12.93;;;;;;;1.73;88.03;101536.30;2015648;86;21622;-76
2022/01/25 06:34:23;;;;;;;21.90;12.68;;;;;;;1.72;87.98;101534.62;2011567;86;21075;-76
2022/01/25 06:37:25;;;;;;;22.22;13.13;;;;;;;1.74;88.04;101537.14;2020674;86;21651;-75
2022/01/25 06:40:27;;;;;;;19.73;12.78;;;;;;;1.75;88.12;101534.93;2016411;86;20993;-76
2022/01/25 06:43:29;;;;;;;25.82;14.58;;;;;;;1.79;88.19;101525.52;2019016;86;21057;-75
2022/01/25 06:46:32;;;;;;;23.90;13.62;;;;;;;1.82;88.17;101535.47;2020678;86;21018;-76
2022/01/25 06:49:33;;;;;;;27.42;15.58;;;;;;;1.86;88.20;101530.45;2016574;86;21063;-77
2022/01/25 06:52:38;;;;;;;44.83;19.40;;;;;;;1.90;88.26;101529.39;2018907;86;21000;-77
2022/01/25 06:55:43;;;;;;;28.83;16.85;;;;;;;1.92;88.17;101536.72;2017035;86;21606;-77
2022/01/25 06:58:45;;;;;;;25.20;13.93;;;;;;;1.87;88.08;101538.70;2011994;86;21065;-76
2022/01/25 07:01:46;;;;;;;19.45;11.35;;;;;;;1.79;88.02;101547.77;2016605;86;21055;-76
2022/01/25 07:04:48;;;;;;;21.55;11.40;;;;;;;1.78;88.08;101547.39;2023272;86;20962;-76
2022/01/25 07:07:52;;;;;;;21.68;11.45;;;;;;;1.78;88.12;101550.02;2015157;86;21114;-76
2022/01/25 07:10:54;;;;;;;18.32;10.53;;;;;;;1.79;88.12;101551.70;2019341;86;21025;-76
2022/01/25 07:13:57;;;;;;;16.55;9.90;;;;;;;1.83;88.11;101548.48;2018097;86;21119;-76
2022/01/25 07:16:59;;;;;;;18.30;11.88;;;;;;;1.84;88.02;101539.70;2027333;87;21475;-77
2022/01/25 07:20:01;;;;;;;24.00;14.18;;;;;;;1.84;88.01;101532.31;2024807;87;21010;-76
2022/01/25 07:23:03;;;;;;;21.80;13.45;;;;;;;1.86;88.02;101524.78;2027264;87;21071;-76
2022/01/25 07:26:05;;;;;;;21.12;13.05;;;;;;;1.83;87.88;101528.86;2026106;87;21101;-76
2022/01/25 07:29:06;;;;;;;17.12;10.72;;;;;;;1.82;87.82;101523.69;2026977;87;21025;-75
2022/01/25 07:32:08;;;;;;;14.47;9.93;;;;;;;1.81;87.80;101529.39;2027841;87;20971;-75
2022/01/25 07:35:10;;;;;;;12.37;8.20;;;;;;;1.79;87.76;101534.68;2025501;87;21018;-76
2022/01/25 07:38:15;;;;;;;11.03;8.18;;;;;;;1.75;87.68;101535.77;2027544;87;21023;-77
2022/01/25 07:41:16;;;;;;;11.08;7.55;;;;;;;1.75;87.72;101528.39;2028619;87;21601;-77
2022/01/25 07:44:17;;;;;;;13.75;8.85;;;;;;;1.75;87.69;101517.45;2026172;87;21351;-75
2022/01/25 07:47:18;;;;;;;13.48;7.80;;;;;;;1.74;87.67;101514.42;2022357;87;21611;-77
2022/01/25 07:50:20;;;;;;;12.28;8.00;;;;;;;1.70;87.60;101532.52;2029273;87;21089;-78
2022/01/25 07:53:21;;;;;;;9.88;6.92;;;;;;;1.67;87.64;101524.83;2026278;87;21793;-77
2022/01/25 07:56:23;;;;;;;14.40;8.08;;;;;;;1.65;87.63;101525.83;2025964;87;21023;-76
2022/01/25 07:59:25;;;;;;;10.88;7.45;;;;;;;1.64;87.64;101538.06;2025444;87;21720;-76
2022/01/25 08:02:26;;;;;;;9.98;7.45;;;;;;;1.65;87.65;101542.83;2030121;87;21056;-77
2022/01/25 08:05:29;;;;;;;12.13;7.83;;;;;;;1.62;87.60;101532.52;2027184;87;21090;-76
2022/01/25 08:08:30;;;;;;;11.18;7.85;;;;;;;1.61;87.59;101542.61;2020568;87;21011;-77
2022/01/25 08:11:32;;;;;;;13.13;8.38;;;;;;;1.62;87.61;101550.83;1999079;87;21050;-75
2022/01/25 08:14:34;;;;;;;12.65;8.88;;;;;;;1.60;87.68;101552.20;2023905;87;21117;-78
2022/01/25 08:17:36;;;;;;;13.10;8.50;;;;;;;1.58;87.71;101551.45;2027567;86;21603;-77
2022/01/25 08:20:37;;;;;;;15.83;9.03;;;;;;;1.57;87.68;101545.81;2029276;86;21167;-79
2022/01/25 08:23:39;;;;;;;10.30;7.50;;;;;;;1.56;87.65;101548.05;2026922;86;21018;-77
2022/01/25 08:26:42;;;;;;;11.70;8.48;;;;;;;1.53;87.59;101546.42;1997007;86;20975;-77
2022/01/25 08:29:43;;;;;;;11.70;6.80;;;;;;;1.54;87.64;101549.88;2030806;86;21420;-78
2022/01/25 08:32:44;;;;;;;15.00;8.40;;;;;;;1.55;87.63;101555.52;2027561;86;21157;-74
2022/01/25 08:35:46;;;;;;;13.18;8.68;;;;;;;1.55;87.60;101552.91;1995665;88;21043;-85
2022/01/25 08:38:48;;;;;;;17.27;11.68;;;;;;;1.54;87.59;101553.34;2039259;85;21101;-76
2022/01/25 08:41:49;;;;;;;18.75;11.00;;;;;;;1.53;87.60;101557.36;2028990;86;21025;-76
2022/01/25 08:44:53;;;;;;;15.28;9.85;;;;;;;1.53;87.65;101558.66;2022137;86;21098;-76
2022/01/25 08:47:54;;;;;;;14.90;9.23;;;;;;;1.52;87.63;101563.48;2025410;86;20985;-75
2022/01/25 08:50:56;;;;;;;15.25;8.98;;;;;;;1.54;87.69;101564.27;2025002;86;21081;-78
2022/01/25 08:53:57;;;;;;;11.48;8.13;;;;;;;1.57;87.68;101561.51;1968329;88;21064;-75
2022/01/25 08:56:58;;;;;;;12.10;8.15;;;;;;;1.59;87.63;101557.52;2026114;86;21048;-75
2022/01/25 09:00:03;;;;;;;12.58;8.13;;;;;;;1.62;87.72;101563.45;2025871;86;20976;-76
2022/01/25 09:03:05;;;;;;;12.33;8.65;;;;;;;1.66;87.66;101569.37;2022302;86;21066;-75
2022/01/25 09:06:08;;;;;;;12.60;8.35;;;;;;;1.68;87.70;101568.84;2019899;86;21081;-76
2022/01/25 09:09:10;;;;;;;14.75;9.48;;;;;;;1.72;87.73;101573.03;2023115;86;21583;-76
2022/01/25 09:12:12;;;;;;;14.68;10.32;;;;;;;1.72;87.59;101573.03;2021253;86;21110;-77
2022/01/25 09:15:13;;;;;;;18.45;11.03;;;;;;;1.71;87.63;101570.84;2024873;86;21476;-75
2022/01/25 09:18:14;;;;;;;14.58;9.35;;;;;;;1.74;87.73;101565.92;2018575;86;21559;-76
2022/01/25 09:21:16;;;;;;;15.18;8.75;;;;;;;1.72;87.56;101577.80;2019108;86;21087;-76
2022/01/25 09:24:18;;;;;;;16.55;10.00;;;;;;;1.70;87.48;101578.32;2025718;86;20971;-76
2022/01/25 09:27:19;;;;;;;14.13;9.08;;;;;;;1.69;87.43;101569.22;2051591;85;21100;-76
2022/01/25 09:30:20;;;;;;;15.70;10.60;;;;;;;1.67;87.46;101559.31;2020920;86;21027;-76
2022/01/25 09:33:23;;;;;;;18.32;10.85;;;;;;;1.65;87.47;101560.68;2019269;86;21642;-76
2022/01/25 09:36:25;;;;;;;17.02;9.45;;;;;;;1.69;87.60;101562.25;2017539;86;21062;-76
2022/01/25 09:39:26;;;;;;;21.42;10.15;;;;;;;1.77;87.66;101570.58;2026806;86;21068;-75
2022/01/25 09:42:29;;;;;;;14.45;9.48;;;;;;;1.80;87.56;101563.00;2018675;86;21092;-74
2022/01/25 09:45:31;;;;;;;14.18;8.70;;;;;;;1.87;87.72;101550.48;2019631;86;20980;-76
2022/01/25 09:48:32;;;;;;;13.45;8.40;;;;;;;1.92;87.62;101538.86;2018624;86;21692;-74
2022/01/25 09:51:37;;;;;;;17.12;9.60;;;;;;;1.98;87.64;101537.70;2044667;85;21563;-76
2022/01/25 09:54:39;;;;;;;16.57;10.58;;;;;;;2.06;87.61;101532.09;2018426;86;20966;-84
2022/01/25 09:57:41;;;;;;;14.80;9.43;;;;;;;2.18;87.83;101530.99;2020106;86;21099;-78
2022/01/25 10:00:46;;;;;;;14.87;9.65;;;;;;;2.32;87.74;101535.53;2023209;86;21053;-76
2022/01/25 10:03:48;;;;;;;17.25;10.70;;;;;;;2.42;87.68;101534.14;2021593;86;21504;-75
2022/01/25 10:06:50;;;;;;;18.07;10.80;;;;;;;2.59;87.63;101532.38;2018750;86;21088;-75
2022/01/25 10:09:53;;;;;;;17.30;11.65;;;;;;;2.62;87.35;101530.47;2018954;86;22142;-76
2022/01/25 10:13:20;;;;;;;15.72;9.45;;;;;;;2.65;87.19;101524.22;2004111;86;21088;-77
2022/01/25 10:16:31;;;;;;;13.53;8.75;;;;;;;2.71;87.29;101523.05;2014787;86;21563;-77
2022/01/25 10:19:40;;;;;;;14.53;9.20;;;;;;;2.81;86.96;101507.19;2013143;87;21521;-76
2022/01/25 10:22:45;;;;;;;14.93;9.65;;;;;;;2.86;86.80;101505.17;2017028;87;20999;-77
2022/01/25 10:25:49;;;;;;;17.25;10.18;;;;;;;2.95;86.93;101499.42;2014964;87;21034;-77
2022/01/25 10:28:52;;;;;;;16.35;10.20;;;;;;;3.01;86.69;101487.75;2023798;87;21054;-77
2022/01/25 10:31:59;;;;;;;17.02;9.78;;;;;;;3.08;86.70;101481.25;2015199;87;21474;-77
2022/01/25 10:35:08;;;;;;;16.85;10.05;;;;;;;3.18;86.66;101477.63;2015089;87;21012;-77
2022/01/25 10:38:23;;;;;;;17.07;10.28;;;;;;;3.27;86.48;101475.83;2012894;87;21076;-77
2022/01/25 10:41:28;;;;;;;17.45;10.98;;;;;;;3.33;86.32;101480.72;2016746;87;21138;-77
2022/01/25 10:44:54;;;;;;;14.85;9.88;;;;;;;3.38;86.37;101480.00;1988217;87;21053;-77
2022/01/25 10:47:58;;;;;;;13.88;9.48;;;;;;;3.40;86.08;101472.02;2013152;87;21040;-77
2022/01/25 10:51:10;;;;;;;13.95;9.33;;;;;;;3.39;85.80;101474.28;2009950;87;21058;-76
2022/01/25 10:54:17;;;;;;;13.38;8.80;;;;;;;3.39;85.74;101471.19;1997343;87;21570;-76
2022/01/25 10:57:27;;;;;;;14.98;8.55;;;;;;;3.39;85.30;101472.50;2013302;87;21070;-76
2022/01/25 11:00:33;;;;;;;16.17;9.90;;;;;;;3.34;85.11;101466.19;2017015;87;21145;-76
2022/01/25 11:03:42;;;;;;;15.35;9.28;;;;;;;3.32;85.02;101469.83;2015204;87;21079;-76
2022/01/25 11:06:45;;;;;;;16.37;9.63;;;;;;;3.30;84.75;101455.97;2013258;87;21669;-76
2022/01/25 11:09:48;;;;;;;16.12;9.65;;;;;;;3.29;85.04;101443.77;2015301;87;21033;-76
2022/01/25 11:13:04;;;;;;;16.37;8.83;;;;;;;3.25;84.67;101448.36;2013748;87;21043;-76
2022/01/25 11:16:12;;;;;;;17.27;10.75;;;;;;;3.30;85.03;101451.56;2015686;86;21040;-76
2022/01/25 11:19:14;;;;;;;16.32;9.93;;;;;;;3.37;84.95;101446.80;2014987;86;21051;-76
2022/01/25 11:22:22;;;;;;;15.08;10.03;;;;;;;3.43;84.77;101450.38;2019577;86;21103;-76
2022/01/25 11:25:28;;;;;;;19.97;9.47;;;;;;;3.45;84.77;101441.96;2022979;86;21563;-75
2022/01/25 11:28:32;;;;;;;17.90;9.30;;;;;;;3.46;84.74;101444.95;2027023;86;21043;-77
2022/01/25 11:31:37;;;;;;;14.95;9.08;;;;;;;3.46;84.52;101450.67;2017330;86;21077;-78
2022/01/25 11:34:40;;;;;;;18.00;10.28;;;;;;;3.45;84.38;101444.59;2015819;86;21085;-79
2022/01/25 11:37:46;;;;;;;16.85;9.33;;;;;;;3.45;84.38;101452.93;2016043;86;21127;-78
2022/01/25 11:40:47;;;;;;;19.80;10.93;;;;;;;3.47;84.45;101455.02;2018814;86;21379;-78
2022/01/25 11:44:12;;;;;;;16.75;10.60;;;;;;;3.47;84.28;101445.35;2017755;86;21062;-78
2022/01/25 11:47:16;;;;;;;17.02;10.08;;;;;;;3.47;84.18;101450.60;2018696;86;21103;-78
2022/01/25 11:50:19;;;;;;;19.05;10.15;;;;;;;3.47;83.96;101440.58;2021446;86;21049;-80
2022/01/25 11:53:24;;;;;;;16.35;9.55;;;;;;;3.49;84.01;101438.69;2022922;86;21095;-81
2022/01/25 11:56:26;;;;;;;16.90;8.88;;;;;;;3.49;84.04;101440.00;2022800;86;21730;-78
2022/01/25 11:59:37;;;;;;;14.65;8.53;;;;;;;3.56;84.08;101435.62;2021081;86;21502;-78
2022/01/25 12:02:43;;;;;;;21.95;12.00;;;;;;;3.60;83.78;101433.66;2018222;86;21056;-78
2022/01/25 12:06:14;;;;;;;17.50;9.68;;;;;;;3.66;83.79;101426.77;2023481;86;21049;-79
2022/01/25 12:09:31;;;;;;;14.35;8.93;;;;;;;3.72;83.76;101424.24;2019124;86;21028;-79
2022/01/25 12:12:27;;;;;;;15.32;9.00;;;;;;;3.77;83.64;101419.54;2019713;85;21551;-78
2022/01/25 12:15:28;;;;;;;15.15;8.98;;;;;;;3.75;83.42;101418.81;2019417;86;21037;-79
2022/01/25 12:19:00;;;;;;;16.27;9.73;;;;;;;3.74;83.33;101423.66;2034812;86;21572;-78
2022/01/25 12:26:03;;;;;;;13.62;8.63;;;;;;;3.73;83.03;101416.73;2032952;86;21057;-79
2022/01/25 12:29:04;;;;;;;14.63;9.20;;;;;;;3.77;82.75;101415.59;2035206;86;21097;-79
2022/01/25 12:32:23;;;;;;;13.10;8.10;;;;;;;3.80;82.66;101417.59;2018664;85;21104;-79
2022/01/25 12:35:52;;;;;;;14.65;8.15;;;;;;;3.76;82.41;101417.86;2019194;86;20995;-79
2022/01/25 12:38:55;;;;;;;13.20;8.10;;;;;;;3.66;82.28;101405.77;2032296;86;21090;-79
2022/01/25 12:41:59;;;;;;;11.97;7.78;;;;;;;3.59;82.26;101403.95;2032229;86;21504;-79
2022/01/25 12:45:00;;;;;;;17.45;9.60;;;;;;;3.54;82.28;101402.53;2031952;86;21025;-79
2022/01/25 12:48:06;;;;;;;23.35;12.40;;;;;;;3.47;82.18;101394.66;2031457;85;21061;-79
2022/01/25 12:51:12;;;;;;;17.12;8.75;;;;;;;3.44;82.35;101393.52;2033169;86;21671;-79
2022/01/25 12:54:17;;;;;;;13.68;7.87;;;;;;;3.43;82.39;101390.50;2035526;86;21063;-79
2022/01/25 12:57:21;;;;;;;14.55;7.33;;;;;;;3.39;82.30;101391.62;2035541;86;21109;-80
2022/01/25 13:00:30;;;;;;;14.18;7.92;;;;;;;3.34;82.30;101388.79;2032130;86;21039;-79
2022/01/25 13:03:35;;;;;;;13.05;7.75;;;;;;;3.32;82.22;101393.30;2023587;86;21022;-79
2022/01/25 13:06:46;;;;;;;15.58;8.48;;;;;;;3.28;82.24;101390.46;2032035;86;21066;-79
2022/01/25 13:09:48;;;;;;;13.32;7.78;;;;;;;3.28;82.30;101393.08;2033168;86;21659;-79
2022/01/25 13:12:59;;;;;;;13.65;7.28;;;;;;;3.32;82.35;101402.92;2057054;85;21027;-77
2022/01/25 13:15:59;;;;;;;13.53;7.50;;;;;;;3.33;82.15;101407.27;2033135;85;21644;-76
2022/01/25 13:19:00;;;;;;;16.20;9.30;;;;;;;3.33;82.24;101401.54;1995444;86;21042;-79
2022/01/25 13:22:10;;;;;;;16.82;9.45;;;;;;;3.32;82.31;101397.68;2021194;86;21059;-79
2022/01/25 13:31:35;;;;;;;15.78;8.18;;;;;;;3.19;82.17;101394.09;2017866;86;21076;-79
2022/01/25 13:34:37;;;;;;;12.43;7.65;;;;;;;3.18;82.20;101392.39;2020746;86;21133;-79
2022/01/25 13:37:39;;;;;;;15.90;8.25;;;;;;;3.19;82.34;101392.78;2015954;86;21605;-79
2022/01/25 13:40:58;;;;;;;11.97;6.35;;;;;;;3.20;82.26;101393.16;2016793;86;21095;-79
2022/01/25 13:47:20;;;;;;;20.75;9.18;;;;;;;3.11;82.33;101397.14;2017760;86;21077;-78
2022/01/25 13:50:22;;;;;;;10.85;6.40;;;;;;;3.05;82.35;101396.19;2019505;86;21568;-78
2022/01/25 13:53:26;;;;;;;12.30;6.40;;;;;;;2.96;82.25;101384.45;2044752;85;21019;-81
2022/01/25 13:56:31;;;;;;;11.15;5.90;;;;;;;2.88;82.40;101393.21;2022940;86;21080;-85
2022/01/25 13:59:36;;;;;;;12.90;7.28;;;;;;;2.84;82.56;101393.83;2015122;86;21004;-83
2022/01/25 14:02:39;;;;;;;15.05;7.45;;;;;;;2.88;82.73;101392.73;2018112;85;21023;-83
2022/01/25 14:05:40;;;;;;;11.25;6.22;;;;;;;2.88;82.70;101392.73;2021419;86;21112;-83
2022/01/25 14:08:44;;;;;;;15.93;9.30;;;;;;;2.83;82.65;101392.61;2021349;86;21498;-83
2022/01/25 14:21:54;;;;;;;14.03;8.43;;;;;;;2.65;82.96;101390.09;2019410;86;21037;-84
2022/01/25 14:24:52;;;;;;;13.60;7.53;;;;;;;2.63;82.99;101390.63;2020994;85;21082;-85
2022/01/25 14:27:58;;;;;;;11.30;6.80;;;;;;;2.62;83.09;101396.81;2017252;86;21118;-83
2022/01/25 14:31:01;;;;;;;12.73;7.58;;;;;;;2.62;83.15;101391.58;2021640;86;21036;-89
2022/01/25 14:34:05;;;;;;;11.60;6.47;;;;;;;2.67;83.32;101400.47;2020440;85;21042;-86
2022/01/25 14:37:14;;;;;;;14.50;8.35;;;;;;;2.64;83.24;101398.02;2017295;86;21479;-82
2022/01/25 14:40:17;;;;;;;11.08;7.37;;;;;;;2.61;83.28;101392.48;2020314;86;21090;-85
2022/01/25 14:43:27;;;;;;;17.82;9.70;;;;;;;2.60;83.28;101401.76;2015812;86;21024;-86
2022/01/25 14:46:50;;;;;;;23.67;13.70;;;;;;;2.57;83.37;101405.39;1999849;86;21068;-84
2022/01/25 14:49:58;;;;;;;19.90;11.63;;;;;;;2.59;83.44;101406.59;2018117;86;21079;-85
2022/01/25 14:53:13;;;;;;;19.20;10.75;;;;;;;2.58;83.44;101400.52;2019320;86;21059;-86
2022/01/25 14:56:17;;;;;;;16.47;9.33;;;;;;;2.55;83.38;101403.30;2020845;86;21459;-83
2022/01/25 14:59:29;;;;;;;18.90;10.03;;;;;;;2.52;83.34;101394.78;2015448;86;21076;-79
2022/01/25 15:02:30;;;;;;;19.05;10.15;;;;;;;2.50;83.42;101405.33;2014817;86;21017;-88
2022/01/25 15:05:32;;;;;;;48.80;22.20;;;;;;;2.47;83.46;101410.27;2019167;86;21665;-87
2022/01/25 15:08:33;;;;;;;47.98;18.52;;;;;;;2.47;83.53;101414.20;2016041;86;22330;-87
2022/01/25 15:11:35;;;;;;;23.47;12.18;;;;;;;2.47;83.57;101417.29;2018974;85;21067;-83
2022/01/25 15:14:49;;;;;;;30.55;13.95;;;;;;;2.44;83.55;101422.70;2022414;86;21105;-86
2022/01/25 15:17:40;;;;;;;38.13;17.98;;;;;;;2.43;83.63;101428.88;2022330;85;21114;-86
2022/01/25 15:20:42;;;;;;;41.68;19.52;;;;;;;2.41;83.66;101425.48;2024318;86;21054;-85
2022/01/25 15:23:47;;;;;;;37.95;16.27;;;;;;;2.38;83.60;101429.58;1987813;87;21523;-85
2022/01/25 15:26:52;;;;;;;42.83;20.62;;;;;;;2.37;83.67;101433.14;2023427;85;21595;-85
2022/01/25 15:29:50;;;;;;;19.15;11.40;;;;;;;2.41;83.78;101432.03;2030321;86;21015;-86
2022/01/25 15:32:52;;;;;;;20.20;11.45;;;;;;;2.45;83.80;101430.95;2025980;86;21132;-85
2022/01/25 15:35:53;;;;;;;24.20;12.85;;;;;;;2.43;83.76;101434.11;2022878;86;21047;-84
2022/01/25 15:38:54;;;;;;;21.37;10.98;;;;;;;2.39;83.79;101437.37;2022114;86;21553;-88
2022/01/25 15:41:58;;;;;;;22.17;11.63;;;;;;;2.38;83.80;101442.20;2023303;86;21016;-89
2022/01/25 15:45:09;;;;;;;23.92;12.88;;;;;;;2.33;83.75;101436.83;2027199;86;21076;-85
2022/01/25 15:48:02;;;;;;;36.85;16.35;;;;;;;2.33;83.84;101436.83;1988963;88;21109;-88
2022/01/25 15:51:04;;;;;;;26.27;11.90;;;;;;;2.33;83.81;101440.76;2026363;86;21066;-87
2022/01/25 15:54:05;;;;;;;30.30;14.58;;;;;;;2.33;83.83;101447.30;2023123;86;21066;-86
2022/01/25 15:57:08;;;;;;;73.57;31.02;;;;;;;2.34;83.79;101447.24;2027330;85;21588;-82
2022/01/25 16:00:10;;;;;;;99.15;37.55;;;;;;;2.33;83.81;101440.29;2024794;86;21086;-85
2022/01/25 16:03:12;;;;;;;81.15;33.70;;;;;;;2.32;83.84;101446.94;2025334;86;21059;-86
2022/01/25 16:06:14;;;;;;;35.30;17.02;;;;;;;2.31;83.87;101445.23;2025120;86;21029;-81